createdAt,value
2016-05-13T00:00:21.995Z,0
2016-05-13T00:01:23.061Z,0
2016-05-13T00:02:22.219Z,0
2016-05-13T00:03:22.347Z,0
2016-05-13T00:04:21.975Z,0
2016-05-13T00:05:36.900Z,0
2016-05-13T00:06:22.121Z,0
2016-05-13T00:07:23.093Z,0
2016-05-13T00:08:22.486Z,0
2016-05-13T00:09:23.519Z,0
2016-05-13T00:10:37.226Z,0
2016-05-13T00:11:22.807Z,0
2016-05-13T00:12:22.544Z,0
2016-05-13T00:13:22.265Z,0
2016-05-13T00:14:24.580Z,0
2016-05-13T00:15:36.145Z,0
2016-05-13T00:16:21.820Z,0
2016-05-13T00:17:22.259Z,0
2016-05-13T00:18:22.387Z,0
2016-05-13T00:19:22.266Z,0
2016-05-13T00:20:21.956Z,0
2016-05-13T00:21:21.959Z,0
2016-05-13T00:22:21.804Z,0
2016-05-13T00:23:21.807Z,0
2016-05-13T00:24:21.951Z,0
2016-05-13T00:25:21.828Z,0
2016-05-13T00:26:21.956Z,0
2016-05-13T00:27:21.943Z,0
2016-05-13T00:28:21.945Z,0
2016-05-13T00:29:21.792Z,0
2016-05-13T00:30:21.967Z,0
2016-05-13T00:31:21.953Z,0
2016-05-13T00:32:21.801Z,0
2016-05-13T00:33:21.959Z,0
2016-05-13T00:34:21.634Z,0
2016-05-13T00:35:21.777Z,0
2016-05-13T00:36:21.936Z,0
2016-05-13T00:37:21.782Z,0
2016-05-13T00:38:21.941Z,0
2016-05-13T00:39:21.632Z,0
2016-05-13T00:40:21.775Z,0
2016-05-13T00:41:21.935Z,0
2016-05-13T00:42:21.921Z,0
2016-05-13T00:43:21.783Z,0
2016-05-13T00:44:21.926Z,0
2016-05-13T00:45:21.632Z,0
2016-05-13T00:46:21.760Z,0
2016-05-13T00:47:21.982Z,0
2016-05-13T00:48:21.921Z,0
2016-05-13T00:49:21.909Z,0
2016-05-13T00:50:21.911Z,0
2016-05-13T00:51:21.757Z,0
2016-05-13T00:52:21.760Z,0
2016-05-13T00:53:21.903Z,0
2016-05-13T00:54:21.923Z,0
2016-05-13T00:55:21.909Z,0
2016-05-13T00:56:21.912Z,0
2016-05-13T00:57:21.899Z,0
2016-05-13T00:58:21.901Z,0
2016-05-13T00:59:21.748Z,0
2016-05-13T01:00:21.735Z,0
2016-05-13T01:01:21.749Z,0
2016-05-13T01:02:22.107Z,0
2016-05-13T01:03:21.982Z,0
2016-05-13T01:04:22.027Z,0
2016-05-13T01:05:22.074Z,0
2016-05-13T01:06:22.112Z,0
2016-05-13T01:07:22.131Z,0
2016-05-13T01:08:21.822Z,0
2016-05-13T01:09:21.856Z,0
2016-05-13T01:10:22.186Z,0
2016-05-13T01:11:22.187Z,0
2016-05-13T01:12:22.163Z,0
2016-05-13T01:13:22.171Z,0
2016-05-13T01:14:22.180Z,0
2016-05-13T01:15:22.188Z,0
2016-05-13T01:16:22.180Z,0
2016-05-13T01:17:23.152Z,0
2016-05-13T01:18:22.486Z,0
2016-05-13T01:19:22.036Z,0
2016-05-13T01:20:22.838Z,0
2016-05-13T01:21:22.608Z,0
2016-05-13T01:22:22.628Z,0
2016-05-13T01:23:23.693Z,0
2016-05-13T01:24:23.666Z,0
2016-05-13T01:25:23.389Z,0
2016-05-13T01:26:38.047Z,0
2016-05-13T01:27:37.973Z,0
2016-05-13T01:28:23.757Z,0
2016-05-13T01:29:23.306Z,0
2016-05-13T01:30:22.622Z,0
2016-05-13T01:31:22.203Z,0
2016-05-13T01:32:22.112Z,0
2016-05-13T01:33:37.677Z,0
2016-05-13T01:34:22.523Z,0
2016-05-13T01:35:22.370Z,0
2016-05-13T01:36:21.858Z,0
2016-05-13T01:37:22.376Z,0
2016-05-13T01:38:21.957Z,0
2016-05-13T01:39:21.849Z,0
2016-05-13T01:40:22.149Z,0
2016-05-13T01:41:22.168Z,0
2016-05-13T01:42:22.186Z,0
2016-05-13T01:43:22.157Z,0
2016-05-13T01:44:22.020Z,0
2016-05-13T01:45:22.162Z,0
2016-05-13T01:46:22.150Z,0
2016-05-13T01:47:22.121Z,0
2016-05-13T01:48:22.140Z,0
2016-05-13T01:49:21.987Z,0
2016-05-13T01:50:22.145Z,0
2016-05-13T01:51:22.148Z,0
2016-05-13T01:52:21.978Z,0
2016-05-13T01:53:21.981Z,0
2016-05-13T01:54:22.124Z,0
2016-05-13T01:55:21.986Z,0
2016-05-13T01:56:22.130Z,0
2016-05-13T01:57:22.117Z,0
2016-05-13T01:58:21.964Z,0
2016-05-13T01:59:22.122Z,0
2016-05-13T02:00:22.125Z,0
2016-05-13T02:01:22.112Z,0
2016-05-13T02:02:21.958Z,0
2016-05-13T02:03:22.118Z,0
2016-05-13T02:04:21.949Z,0
2016-05-13T02:05:22.107Z,0
2016-05-13T02:06:22.126Z,0
2016-05-13T02:07:21.971Z,0
2016-05-13T02:08:21.944Z,0
2016-05-13T02:09:21.962Z,0
2016-05-13T02:10:22.105Z,0
2016-05-13T02:11:21.952Z,0
2016-05-13T02:12:22.095Z,0
2016-05-13T02:13:22.081Z,0
2016-05-13T02:14:22.100Z,0
2016-05-13T02:15:22.088Z,0
2016-05-13T02:16:21.934Z,0
2016-05-13T02:17:21.640Z,0
2016-05-13T02:18:22.079Z,0
2016-05-13T02:19:22.081Z,0
2016-05-13T02:20:21.928Z,0
2016-05-13T02:21:22.087Z,0
2016-05-13T02:22:21.919Z,0
2016-05-13T02:23:22.078Z,0
2016-05-13T02:24:22.314Z,0
2016-05-13T02:25:22.083Z,0
2016-05-13T02:26:22.070Z,0
2016-05-13T02:27:21.900Z,0
2016-05-13T02:28:22.060Z,0
2016-05-13T02:29:22.063Z,0
2016-05-13T02:30:22.066Z,0
2016-05-13T02:31:22.052Z,0
2016-05-13T02:32:21.586Z,0
2016-05-13T02:33:22.088Z,0
2016-05-13T02:34:22.044Z,0
2016-05-13T02:35:23.609Z,0
2016-05-13T02:36:24.440Z,0
2016-05-13T02:37:22.991Z,0
2016-05-13T02:38:22.040Z,0
2016-05-13T02:39:22.027Z,0
2016-05-13T02:40:21.717Z,0
2016-05-13T02:41:22.110Z,0
2016-05-13T02:42:23.926Z,0
2016-05-13T02:43:23.615Z,0
2016-05-13T02:44:22.040Z,0
2016-05-13T02:45:23.731Z,0
2016-05-13T02:46:24.342Z,0
2016-05-13T02:47:23.095Z,0
2016-05-13T02:48:22.676Z,0
2016-05-13T02:49:22.351Z,0
2016-05-13T02:50:22.698Z,0
2016-05-13T02:51:22.075Z,0
2016-05-13T02:52:23.874Z,0
2016-05-13T02:53:21.845Z,0
2016-05-13T02:54:36.630Z,0
2016-05-13T02:55:21.991Z,0
2016-05-13T02:56:21.995Z,0
2016-05-13T02:57:22.091Z,0
2016-05-13T02:58:21.859Z,0
2016-05-13T02:59:21.674Z,0
2016-05-13T03:00:21.817Z,0
2016-05-13T03:01:21.820Z,0
2016-05-13T03:02:22.666Z,0
2016-05-13T03:03:21.497Z,0
2016-05-13T03:04:21.969Z,0
2016-05-13T03:05:21.816Z,0
2016-05-13T03:06:21.958Z,0
2016-05-13T03:07:21.977Z,0
2016-05-13T03:08:21.949Z,0
2016-05-13T03:09:21.671Z,0
2016-05-13T03:10:21.954Z,0
2016-05-13T03:11:21.972Z,0
2016-05-13T03:12:21.959Z,5
2016-05-13T03:13:21.790Z,5
2016-05-13T03:14:21.934Z,5
2016-05-13T03:15:21.936Z,5
2016-05-13T03:16:21.939Z,5
2016-05-13T03:17:21.629Z,5
2016-05-13T03:18:21.928Z,5
2016-05-13T03:19:21.931Z,5
2016-05-13T03:20:21.949Z,5
2016-05-13T03:21:21.920Z,10
2016-05-13T03:22:21.784Z,10
2016-05-13T03:23:21.926Z,10
2016-05-13T03:24:21.757Z,15
2016-05-13T03:25:21.916Z,15
2016-05-13T03:26:21.762Z,15
2016-05-13T03:27:21.922Z,20
2016-05-13T03:28:21.767Z,25
2016-05-13T03:29:21.739Z,25
2016-05-13T03:30:21.898Z,30
2016-05-13T03:31:21.916Z,30
2016-05-13T03:32:21.903Z,35
2016-05-13T03:33:22.188Z,35
2016-05-13T03:34:21.738Z,40
2016-05-13T03:35:21.897Z,40
2016-05-13T03:36:21.883Z,45
2016-05-13T03:37:21.886Z,45
2016-05-13T03:38:21.560Z,50
2016-05-13T03:39:21.719Z,50
2016-05-13T03:40:21.878Z,55
2016-05-13T03:41:21.725Z,60
2016-05-13T03:42:21.884Z,60
2016-05-13T03:43:21.871Z,60
2016-05-13T03:44:21.718Z,65
2016-05-13T03:45:21.860Z,70
2016-05-13T03:46:21.723Z,80
2016-05-13T03:47:21.710Z,90
2016-05-13T03:48:21.696Z,90
2016-05-13T03:49:21.856Z,95
2016-05-13T03:50:21.859Z,100
2016-05-13T03:51:21.892Z,105
2016-05-13T03:52:21.848Z,110
2016-05-13T03:53:21.851Z,110
2016-05-13T03:54:21.870Z,115
2016-05-13T03:55:21.840Z,120
2016-05-13T03:56:21.687Z,130
2016-05-13T03:57:21.830Z,130
2016-05-13T03:58:21.848Z,140
2016-05-13T03:59:21.680Z,145
2016-05-13T04:00:21.682Z,150
2016-05-13T04:01:21.904Z,155
2016-05-13T04:02:22.547Z,160
2016-05-13T04:03:22.472Z,165
2016-05-13T04:04:22.036Z,170
2016-05-13T04:05:21.789Z,175
2016-05-13T04:06:22.073Z,180
2016-05-13T04:07:21.827Z,185
2016-05-13T04:08:21.813Z,185
2016-05-13T04:09:21.660Z,190
2016-05-13T04:10:23.677Z,195
2016-05-13T04:11:35.993Z,205
2016-05-13T04:12:22.371Z,205
2016-05-13T04:14:21.813Z,220
2016-05-13T04:15:22.269Z,225
2016-05-13T04:16:21.912Z,225
2016-05-13T04:17:21.884Z,235
2016-05-13T04:18:21.559Z,240
2016-05-13T04:19:21.812Z,245
2016-05-13T04:20:21.815Z,255
2016-05-13T04:21:21.660Z,260
2016-05-13T04:22:21.820Z,270
2016-05-13T04:23:21.681Z,275
2016-05-13T04:24:21.825Z,285
2016-05-13T04:25:21.811Z,295
2016-05-13T04:26:21.659Z,300
2016-05-13T04:27:21.817Z,315
2016-05-13T04:28:21.648Z,330
2016-05-13T04:29:21.667Z,340
2016-05-13T04:30:21.825Z,335
2016-05-13T04:31:21.828Z,345
2016-05-13T04:32:21.830Z,355
2016-05-13T04:33:21.661Z,360
2016-05-13T04:34:21.820Z,365
2016-05-13T04:35:21.683Z,375
2016-05-13T04:36:21.825Z,390
2016-05-13T04:37:21.828Z,405
2016-05-13T04:38:21.691Z,425
2016-05-13T04:39:21.850Z,445
2016-05-13T04:40:21.680Z,450
2016-05-13T04:41:21.683Z,445
2016-05-13T04:42:21.701Z,450
2016-05-13T04:43:21.844Z,455
2016-05-13T04:44:21.846Z,455
2016-05-13T04:45:21.850Z,460
2016-05-13T04:46:21.697Z,470
2016-05-13T04:47:22.090Z,475
2016-05-13T04:48:21.857Z,470
2016-05-13T04:49:21.860Z,465
2016-05-13T04:50:21.878Z,470
2016-05-13T04:51:21.912Z,485
2016-05-13T04:52:21.885Z,495
2016-05-13T04:53:21.871Z,510
2016-05-13T04:54:23.452Z,515
2016-05-13T04:55:23.111Z,520
2016-05-13T04:56:21.895Z,520
2016-05-13T04:57:21.898Z,530
2016-05-13T04:58:22.620Z,535
2016-05-13T04:59:22.137Z,540
2016-05-13T05:00:21.906Z,550
2016-05-13T05:01:22.002Z,565
2016-05-13T05:02:21.974Z,565
2016-05-13T05:03:21.758Z,565
2016-05-13T05:04:23.011Z,580
2016-05-13T05:05:22.404Z,585
2016-05-13T05:06:21.953Z,600
2016-05-13T05:07:22.488Z,620
2016-05-13T05:08:22.021Z,625
2016-05-13T05:09:22.196Z,625
2016-05-13T05:10:21.823Z,630
2016-05-13T05:11:21.858Z,645
2016-05-13T05:12:21.985Z,660
2016-05-13T05:13:21.988Z,665
2016-05-13T05:14:21.991Z,670
2016-05-13T05:15:22.009Z,675
2016-05-13T05:16:22.012Z,690
2016-05-13T05:17:22.045Z,690
2016-05-13T05:18:22.017Z,645
2016-05-13T05:19:22.020Z,715
2016-05-13T05:20:22.882Z,720
2016-05-13T05:21:22.040Z,730
2016-05-13T05:22:21.887Z,745
2016-05-13T05:23:23.014Z,755
2016-05-13T05:25:21.911Z,740
2016-05-13T05:26:22.070Z,750
2016-05-13T05:27:21.931Z,775
2016-05-13T05:28:22.090Z,820
2016-05-13T05:29:24.092Z,845
2016-05-13T05:30:23.470Z,840
2016-05-13T05:31:21.974Z,815
2016-05-13T05:32:22.070Z,820
2016-05-13T05:33:22.136Z,815
2016-05-13T05:34:22.388Z,820
2016-05-13T05:35:22.344Z,840
2016-05-13T05:36:22.159Z,860
2016-05-13T05:37:22.161Z,890
2016-05-13T05:38:22.008Z,925
2016-05-13T05:39:22.027Z,990
2016-05-13T05:40:22.202Z,1055
2016-05-13T05:41:22.032Z,1035
2016-05-13T05:42:22.191Z,975
2016-05-13T05:43:22.193Z,955
2016-05-13T05:44:22.227Z,955
2016-05-13T05:45:22.229Z,970
2016-05-13T05:46:22.232Z,985
2016-05-13T05:47:22.111Z,1015
2016-05-13T05:48:22.254Z,1030
2016-05-13T05:49:21.960Z,1015
2016-05-13T05:50:22.274Z,1025
2016-05-13T05:51:22.277Z,1040
2016-05-13T05:52:22.140Z,1065
2016-05-13T05:53:22.282Z,1080
2016-05-13T05:54:22.301Z,1100
2016-05-13T05:55:22.006Z,1120
2016-05-13T05:56:22.323Z,1135
2016-05-13T05:57:22.340Z,1145
2016-05-13T05:58:22.343Z,1145
2016-05-13T05:59:22.393Z,1160
2016-05-13T06:00:22.364Z,1175
2016-05-13T06:01:22.367Z,1180
2016-05-13T06:02:22.416Z,1170
2016-05-13T06:03:22.606Z,1185
2016-05-13T06:04:22.075Z,1245
2016-05-13T06:05:22.269Z,1285
2016-05-13T06:06:22.286Z,1250
2016-05-13T06:07:22.445Z,985
2016-05-13T06:08:22.433Z,970
2016-05-13T06:09:22.436Z,1010
2016-05-13T06:10:22.453Z,1050
2016-05-13T06:11:22.330Z,1070
2016-05-13T06:12:22.333Z,1085
2016-05-13T06:13:22.868Z,1080
2016-05-13T06:14:23.886Z,1095
2016-05-13T06:15:24.076Z,1100
2016-05-13T06:16:23.360Z,1115
2016-05-13T06:17:23.207Z,1140
2016-05-13T06:18:22.929Z,1160
2016-05-13T06:19:22.853Z,1195
2016-05-13T06:20:22.400Z,1210
2016-05-13T06:21:22.434Z,1195
2016-05-13T06:22:26.143Z,1155
2016-05-13T06:23:22.330Z,1160
2016-05-13T06:24:23.632Z,1155
2016-05-13T06:25:22.616Z,1065
2016-05-13T06:26:22.634Z,780
2016-05-13T06:27:23.156Z,790
2016-05-13T06:28:22.656Z,840
2016-05-13T06:29:22.502Z,1030
2016-05-13T06:30:22.364Z,1155
2016-05-13T06:31:22.711Z,1310
2016-05-13T06:32:22.400Z,1360
2016-05-13T06:33:22.701Z,1345
2016-05-13T06:34:22.719Z,1340
2016-05-13T06:35:22.721Z,1260
2016-05-13T06:36:22.739Z,910
2016-05-13T06:37:22.586Z,895
2016-05-13T06:39:36.953Z,1420
2016-05-13T06:40:37.908Z,1215
2016-05-13T06:41:23.193Z,1470
2016-05-13T06:42:23.540Z,1735
2016-05-13T06:43:23.510Z,1760
2016-05-13T06:44:23.419Z,1810
2016-05-13T06:45:22.826Z,1790
2016-05-13T06:46:22.813Z,1775
2016-05-13T06:47:22.722Z,1770
2016-05-13T06:48:23.022Z,985
2016-05-13T06:49:24.074Z,695
2016-05-13T06:50:37.420Z,695
2016-05-13T06:51:37.048Z,805
2016-05-13T06:52:23.251Z,890
2016-05-13T06:53:22.613Z,1155
2016-05-13T06:54:22.912Z,1415
2016-05-13T06:55:23.056Z,1470
2016-05-13T06:56:22.965Z,1205
2016-05-13T06:57:22.812Z,915
2016-05-13T06:58:22.971Z,900
2016-05-13T06:59:22.989Z,900
2016-05-13T07:00:23.006Z,705
2016-05-13T07:01:23.026Z,740
2016-05-13T07:02:23.607Z,845
2016-05-13T07:03:23.047Z,765
2016-05-13T07:04:23.034Z,875
2016-05-13T07:05:22.895Z,795
2016-05-13T07:06:23.070Z,905
2016-05-13T07:07:23.073Z,1160
2016-05-13T07:08:23.075Z,855
2016-05-13T07:09:23.078Z,945
2016-05-13T07:10:22.783Z,1060
2016-05-13T07:11:23.100Z,1115
2016-05-13T07:12:23.149Z,1100
2016-05-13T07:13:22.963Z,1050
2016-05-13T07:14:22.670Z,1395
2016-05-13T07:15:23.157Z,1270
2016-05-13T07:16:23.175Z,1195
2016-05-13T07:17:23.006Z,1060
2016-05-13T07:18:23.165Z,1600
2016-05-13T07:19:22.854Z,950
2016-05-13T07:20:23.296Z,1540
2016-05-13T07:21:23.891Z,1080
2016-05-13T07:22:23.191Z,1155
2016-05-13T07:23:23.210Z,1180
2016-05-13T07:24:23.197Z,1625
2016-05-13T07:25:23.215Z,1305
2016-05-13T07:26:23.233Z,1595
2016-05-13T07:27:23.268Z,900
2016-05-13T07:28:23.254Z,1060
2016-05-13T07:29:23.257Z,970
2016-05-13T07:30:23.104Z,925
2016-05-13T07:31:23.122Z,820
2016-05-13T07:33:23.346Z,840
2016-05-13T07:34:23.130Z,890
2016-05-13T07:35:24.492Z,1210
2016-05-13T07:36:22.994Z,1560
2016-05-13T07:37:23.872Z,1680
2016-05-13T07:38:23.312Z,1420
2016-05-13T07:39:23.581Z,1880
2016-05-13T07:40:23.349Z,1495
2016-05-13T07:42:25.436Z,1800
2016-05-13T07:43:23.311Z,1840
2016-05-13T07:44:23.579Z,1830
2016-05-13T07:45:23.378Z,1820
2016-05-13T07:46:23.787Z,1815
2016-05-13T07:47:24.149Z,1810
2016-05-13T07:48:23.324Z,1800
2016-05-13T07:49:23.436Z,1770
2016-05-13T07:50:23.314Z,1760
2016-05-13T07:51:23.472Z,1730
2016-05-13T07:52:23.319Z,1710
2016-05-13T07:53:23.510Z,1720
2016-05-13T07:54:23.340Z,1740
2016-05-13T07:55:23.515Z,1750
2016-05-13T07:56:23.548Z,1755
2016-05-13T07:57:25.788Z,1720
2016-05-13T07:58:25.101Z,1695
2016-05-13T07:59:24.010Z,1695
2016-05-13T08:00:38.062Z,1715
2016-05-13T08:01:23.578Z,1730
2016-05-13T08:03:24.176Z,1760
2016-05-13T08:04:23.461Z,1760
2016-05-13T08:05:23.713Z,1745
2016-05-13T08:06:23.795Z,1740
2016-05-13T08:07:24.906Z,1700
2016-05-13T08:08:39.443Z,1675
2016-05-13T08:09:24.584Z,1665
2016-05-13T08:10:23.899Z,1705
2016-05-13T08:11:23.855Z,1805
2016-05-13T08:12:23.560Z,1860
2016-05-13T08:13:23.672Z,1865
2016-05-13T08:14:23.628Z,1815
2016-05-13T08:15:23.756Z,1740
2016-05-13T08:16:23.603Z,1735
2016-05-13T08:17:23.761Z,1735
2016-05-13T08:18:23.639Z,1725
2016-05-13T08:19:23.798Z,1745
2016-05-13T08:20:23.660Z,1745
2016-05-13T08:21:23.835Z,1760
2016-05-13T08:22:23.680Z,1755
2016-05-13T08:23:23.856Z,1770
2016-05-13T08:24:23.874Z,1725
2016-05-13T08:25:23.720Z,1725
2016-05-13T08:26:23.880Z,1725
2016-05-13T08:27:23.929Z,1735
2016-05-13T08:28:23.776Z,1765
2016-05-13T08:29:23.934Z,1765
2016-05-13T08:30:23.937Z,1770
2016-05-13T08:31:23.955Z,1785
2016-05-13T08:32:23.973Z,1785
2016-05-13T08:33:24.695Z,1775
2016-05-13T08:34:23.995Z,1770
2016-05-13T08:35:23.997Z,1775
2016-05-13T08:36:24.015Z,1770
2016-05-13T08:37:24.034Z,1780
2016-05-13T08:38:24.037Z,1780
2016-05-13T08:39:24.056Z,1785
2016-05-13T08:40:24.089Z,1795
2016-05-13T08:41:23.920Z,1510
2016-05-13T08:42:24.094Z,780
2016-05-13T08:43:24.097Z,400
2016-05-13T08:44:23.975Z,395
2016-05-13T08:45:24.133Z,385
2016-05-13T08:46:23.980Z,385
2016-05-13T08:47:23.983Z,380
2016-05-13T08:48:23.689Z,380
2016-05-13T08:49:24.160Z,380
2016-05-13T08:50:24.960Z,380
2016-05-13T08:51:26.962Z,375
2016-05-13T08:52:26.136Z,375
2016-05-13T08:53:24.999Z,370
2016-05-13T08:54:25.049Z,370
2016-05-13T08:55:24.723Z,370
2016-05-13T08:56:24.319Z,370
2016-05-13T08:57:24.510Z,370
2016-05-13T08:58:24.262Z,370
2016-05-13T08:59:24.249Z,370
2016-05-13T09:00:24.862Z,365
2016-05-13T09:01:25.708Z,365
2016-05-13T09:02:25.882Z,365
2016-05-13T09:03:25.338Z,365
2016-05-13T09:04:24.309Z,360
2016-05-13T09:05:24.687Z,360
2016-05-13T09:06:24.393Z,360
2016-05-13T09:07:24.551Z,360
2016-05-13T09:08:24.320Z,360
2016-05-13T09:09:24.323Z,360
2016-05-13T09:10:24.326Z,360
2016-05-13T09:11:24.328Z,360
2016-05-13T09:12:24.331Z,360
2016-05-13T09:13:24.178Z,360
2016-05-13T09:14:24.337Z,360
2016-05-13T09:15:24.339Z,360
2016-05-13T09:16:39.375Z,360
2016-05-13T09:17:25.469Z,360
2016-05-13T09:18:24.378Z,360
2016-05-13T09:19:24.194Z,360
2016-05-13T09:20:24.712Z,360
2016-05-13T09:21:24.402Z,360
2016-05-13T09:22:24.764Z,360
2016-05-13T09:23:24.220Z,360
2016-05-13T09:24:24.363Z,360
2016-05-13T09:25:24.913Z,360
2016-05-13T09:26:24.432Z,360
2016-05-13T09:27:24.247Z,360
2016-05-13T09:28:24.780Z,360
2016-05-13T09:29:24.236Z,360
2016-05-13T09:30:24.395Z,360
2016-05-13T09:31:24.257Z,360
2016-05-13T09:32:24.151Z,360
2016-05-13T09:33:24.263Z,360
2016-05-13T09:34:24.406Z,365
2016-05-13T09:35:24.409Z,360
2016-05-13T09:36:24.380Z,360
2016-05-13T09:37:24.273Z,360
2016-05-13T09:38:24.417Z,365
2016-05-13T09:39:24.419Z,365
2016-05-13T09:40:24.438Z,365
2016-05-13T09:41:24.690Z,365
2016-05-13T09:42:24.443Z,365
2016-05-13T09:43:25.211Z,365
2016-05-13T09:44:24.292Z,365
2016-05-13T09:45:24.451Z,360
2016-05-13T09:46:24.453Z,360
2016-05-13T09:47:26.363Z,360
2016-05-13T09:48:28.537Z,365
2016-05-13T09:49:24.743Z,365
2016-05-13T09:50:24.464Z,365
2016-05-13T09:51:24.311Z,365
2016-05-13T09:52:24.485Z,365
2016-05-13T09:53:24.316Z,360
2016-05-13T09:54:24.335Z,360
2016-05-13T09:55:24.321Z,360
2016-05-13T09:56:24.324Z,355
2016-05-13T09:57:24.483Z,355
2016-05-13T09:58:24.517Z,355
2016-05-13T09:59:24.349Z,350
2016-05-13T10:00:24.507Z,340
2016-05-13T10:01:24.197Z,345
2016-05-13T10:02:24.731Z,345
2016-05-13T10:03:24.656Z,345
2016-05-13T10:04:24.362Z,340
2016-05-13T10:05:24.520Z,340
2016-05-13T10:06:24.539Z,335
2016-05-13T10:07:24.370Z,335
2016-05-13T10:08:24.391Z,330
2016-05-13T10:09:25.296Z,335
2016-05-13T10:10:24.638Z,335
2016-05-13T10:11:26.200Z,340
2016-05-13T10:12:24.588Z,330
2016-05-13T10:13:24.950Z,335
2016-05-13T10:14:24.828Z,335
2016-05-13T10:15:25.127Z,335
2016-05-13T10:16:24.878Z,335
2016-05-13T10:17:24.601Z,335
2016-05-13T10:18:24.879Z,335
2016-05-13T10:19:26.059Z,335
2016-05-13T10:20:26.208Z,335
2016-05-13T10:21:25.653Z,335
2016-05-13T10:22:24.599Z,335
2016-05-13T10:23:25.871Z,330
2016-05-13T10:24:25.422Z,330
2016-05-13T10:25:25.333Z,330
2016-05-13T10:26:24.932Z,335
2016-05-13T10:27:24.937Z,340
2016-05-13T10:28:24.784Z,345
2016-05-13T10:29:24.960Z,350
2016-05-13T10:30:24.978Z,355
2016-05-13T10:31:24.825Z,360
2016-05-13T10:32:25.251Z,365
2016-05-13T10:33:24.724Z,370
2016-05-13T10:34:25.007Z,390
2016-05-13T10:35:26.854Z,430
2016-05-13T10:36:25.327Z,465
2016-05-13T10:37:25.189Z,470
2016-05-13T10:38:24.988Z,475
2016-05-13T10:39:25.569Z,475
2016-05-13T10:40:25.463Z,475
2016-05-13T10:41:25.012Z,475
2016-05-13T10:42:25.014Z,470
2016-05-13T10:43:25.017Z,470
2016-05-13T10:44:38.991Z,465
2016-05-13T10:45:25.272Z,465
2016-05-13T10:46:26.479Z,475
2016-05-13T10:47:24.902Z,475
2016-05-13T10:48:24.921Z,475
2016-05-13T10:49:24.908Z,460
2016-05-13T10:50:25.505Z,445
2016-05-13T10:51:25.071Z,435
2016-05-13T10:52:24.902Z,445
2016-05-13T10:53:24.935Z,470
2016-05-13T10:54:25.078Z,485
2016-05-13T10:55:24.940Z,490
2016-05-13T10:56:25.084Z,490
2016-05-13T10:57:25.086Z,490
2016-05-13T10:58:24.777Z,525
2016-05-13T10:59:25.123Z,560
2016-05-13T11:00:25.109Z,605
2016-05-13T11:01:25.112Z,620
2016-05-13T11:02:25.553Z,610
2016-05-13T11:03:25.025Z,575
2016-05-13T11:04:25.120Z,550
2016-05-13T11:05:25.139Z,535
2016-05-13T11:06:25.126Z,505
2016-05-13T11:07:24.988Z,485
2016-05-13T11:08:25.006Z,485
2016-05-13T11:09:25.150Z,525
2016-05-13T11:10:25.153Z,560
2016-05-13T11:11:25.014Z,565
2016-05-13T11:12:25.017Z,555
2016-05-13T11:13:25.177Z,550
2016-05-13T11:14:25.022Z,540
2016-05-13T11:15:25.197Z,510
2016-05-13T11:16:25.059Z,505
2016-05-13T11:17:25.624Z,515
2016-05-13T11:18:24.799Z,505
2016-05-13T11:19:25.052Z,505
2016-05-13T11:20:25.726Z,515
2016-05-13T11:21:25.244Z,520
2016-05-13T11:22:25.232Z,515
2016-05-13T11:23:25.141Z,535
2016-05-13T11:24:25.096Z,550
2016-05-13T11:25:25.255Z,570
2016-05-13T11:26:25.258Z,590
2016-05-13T11:27:30.151Z,615
2016-05-13T11:28:26.701Z,605
2016-05-13T11:29:25.282Z,570
2016-05-13T11:30:26.112Z,510
2016-05-13T11:31:26.381Z,440
2016-05-13T11:32:25.743Z,440
2016-05-13T11:33:25.839Z,425
2016-05-13T11:34:25.983Z,410
2016-05-13T11:35:25.329Z,425
2016-05-13T11:36:25.409Z,430
2016-05-13T11:37:26.897Z,420
2016-05-13T11:38:26.712Z,415
2016-05-13T11:39:26.012Z,400
2016-05-13T11:40:25.342Z,390
2016-05-13T11:41:25.658Z,375
2016-05-13T11:42:25.925Z,360
2016-05-13T11:43:25.960Z,365
2016-05-13T11:44:25.228Z,365
2016-05-13T11:45:25.558Z,370
2016-05-13T11:46:25.218Z,365
2016-05-13T11:47:25.424Z,365
2016-05-13T11:48:25.521Z,375
2016-05-13T11:49:25.399Z,390
2016-05-13T11:50:25.402Z,385
2016-05-13T11:51:25.419Z,385
2016-05-13T11:52:25.421Z,390
2016-05-13T11:53:25.299Z,400
2016-05-13T11:54:25.677Z,400
2016-05-13T11:55:40.713Z,395
2016-05-13T11:56:25.276Z,390
2016-05-13T11:57:25.951Z,380
2016-05-13T11:58:25.298Z,395
2016-05-13T11:59:25.456Z,425
2016-05-13T12:00:25.365Z,445
2016-05-13T12:01:25.476Z,415
2016-05-13T12:02:26.387Z,380
2016-05-13T12:03:40.107Z,380
2016-05-13T12:04:25.939Z,405
2016-05-13T12:05:40.129Z,460
2016-05-13T12:06:39.694Z,470
2016-05-13T12:07:26.009Z,465
2016-05-13T12:08:26.059Z,465
2016-05-13T12:09:25.670Z,420
2016-05-13T12:10:25.517Z,370
2016-05-13T12:11:25.536Z,350
2016-05-13T12:12:25.381Z,345
2016-05-13T12:13:25.541Z,355
2016-05-13T12:14:25.574Z,370
2016-05-13T12:15:25.561Z,390
2016-05-13T12:16:25.408Z,400
2016-05-13T12:17:25.442Z,410
2016-05-13T12:18:25.819Z,440
2016-05-13T12:19:25.447Z,435
2016-05-13T12:20:25.591Z,400
2016-05-13T12:21:25.578Z,380
2016-05-13T12:22:25.580Z,385
2016-05-13T12:23:25.630Z,390
2016-05-13T12:24:25.601Z,380
2016-05-13T12:25:25.621Z,375
2016-05-13T12:26:25.607Z,390
2016-05-13T12:27:25.469Z,425
2016-05-13T12:28:25.644Z,430
2016-05-13T12:29:25.646Z,425
2016-05-13T12:30:25.321Z,385
2016-05-13T12:31:25.637Z,345
2016-05-13T12:32:26.482Z,330
2016-05-13T12:33:25.657Z,330
2016-05-13T12:34:25.504Z,335
2016-05-13T12:35:25.678Z,345
2016-05-13T12:36:25.696Z,355
2016-05-13T12:37:25.699Z,365
2016-05-13T12:38:25.701Z,380
2016-05-13T12:39:25.549Z,380
2016-05-13T12:40:25.536Z,385
2016-05-13T12:41:25.694Z,380
2016-05-13T12:42:25.573Z,380
2016-05-13T12:43:25.715Z,380
2016-05-13T12:44:25.734Z,375
2016-05-13T12:45:25.581Z,375
2016-05-13T12:46:25.598Z,360
2016-05-13T12:47:27.305Z,350
2016-05-13T12:48:28.010Z,345
2016-05-13T12:49:25.778Z,345
2016-05-13T12:50:26.984Z,340
2016-05-13T12:51:26.408Z,330
2016-05-13T12:52:25.927Z,330
2016-05-13T12:53:25.774Z,330
2016-05-13T12:54:25.791Z,330
2016-05-13T12:55:25.747Z,320
2016-05-13T12:56:27.656Z,310
2016-05-13T12:57:26.627Z,310
2016-05-13T12:58:25.662Z,330
2016-05-13T12:59:26.102Z,340
2016-05-13T13:00:26.542Z,345
2016-05-13T13:01:26.342Z,360
2016-05-13T13:02:26.188Z,370
2016-05-13T13:03:26.066Z,390
2016-05-13T13:04:26.037Z,395
2016-05-13T13:05:25.868Z,395
2016-05-13T13:06:25.699Z,410
2016-05-13T13:07:25.859Z,415
2016-05-13T13:08:25.861Z,390
2016-05-13T13:09:25.879Z,360
2016-05-13T13:10:25.882Z,355
2016-05-13T13:11:25.884Z,340
2016-05-13T13:12:26.950Z,325
2016-05-13T13:13:26.530Z,310
2016-05-13T13:14:25.908Z,290
2016-05-13T13:15:26.458Z,275
2016-05-13T13:16:25.758Z,275
2016-05-13T13:17:26.400Z,275
2016-05-13T13:18:26.513Z,280
2016-05-13T13:19:25.921Z,285
2016-05-13T13:20:25.924Z,295
2016-05-13T13:21:25.787Z,320
2016-05-13T13:22:40.524Z,340
2016-05-13T13:23:25.994Z,330
2016-05-13T13:24:25.794Z,300
2016-05-13T13:25:25.984Z,285
2016-05-13T13:26:26.472Z,280
2016-05-13T13:27:26.475Z,300
2016-05-13T13:28:26.118Z,320
2016-05-13T13:29:26.120Z,310
2016-05-13T13:30:26.155Z,305
2016-05-13T13:31:26.001Z,300
2016-05-13T13:32:25.846Z,300
2016-05-13T13:33:26.054Z,295
2016-05-13T13:34:25.852Z,300
2016-05-13T13:35:25.699Z,290
2016-05-13T13:36:26.014Z,260
2016-05-13T13:37:25.860Z,245
2016-05-13T13:38:26.020Z,245
2016-05-13T13:39:25.866Z,245
2016-05-13T13:40:26.025Z,245
2016-05-13T13:41:26.043Z,245
2016-05-13T13:42:26.046Z,235
2016-05-13T13:43:25.892Z,235
2016-05-13T13:44:26.036Z,230
2016-05-13T13:45:25.898Z,230
2016-05-13T13:46:26.057Z,230
2016-05-13T13:47:26.091Z,225
2016-05-13T13:48:25.749Z,240
2016-05-13T13:49:26.064Z,260
2016-05-13T13:50:26.068Z,225
2016-05-13T13:51:25.961Z,210
2016-05-13T13:52:25.775Z,200
2016-05-13T13:53:26.091Z,185
2016-05-13T13:54:26.094Z,190
2016-05-13T13:55:26.097Z,195
2016-05-13T13:56:25.974Z,205
2016-05-13T13:57:26.149Z,210
2016-05-13T13:58:25.964Z,215
2016-05-13T13:59:26.124Z,215
2016-05-13T14:00:26.126Z,215
2016-05-13T14:01:26.129Z,220
2016-05-13T14:02:26.132Z,220